createdAt,value
2018-04-19T00:00:44.296Z,14.48
2018-04-19T00:01:44.290Z,14.41
2018-04-19T00:02:44.283Z,14.35
2018-04-19T00:03:44.277Z,14.30
2018-04-19T00:04:44.272Z,14.26
2018-04-19T00:05:44.265Z,14.28
2018-04-19T00:06:44.259Z,14.20
2018-04-19T00:07:44.254Z,14.18
2018-04-19T00:08:44.248Z,14.17
2018-04-19T00:09:44.243Z,14.20
2018-04-19T00:10:44.236Z,14.10
2018-04-19T00:11:44.233Z,14.08
2018-04-19T00:12:44.228Z,13.99
2018-04-19T00:13:44.217Z,14.03
2018-04-19T00:14:44.211Z,13.93
2018-04-19T00:15:44.207Z,13.92
2018-04-19T00:16:44.198Z,13.95
2018-04-19T00:17:44.193Z,13.89
2018-04-19T00:18:44.186Z,13.90
2018-04-19T00:19:44.180Z,13.92
2018-04-19T00:20:44.211Z,13.92
2018-04-19T00:21:44.167Z,13.93
2018-04-19T00:22:44.161Z,14.08
2018-04-19T00:23:44.154Z,14.05
2018-04-19T00:24:44.151Z,14.17
2018-04-19T00:25:44.143Z,14.18
2018-04-19T00:26:44.138Z,14.20
2018-04-19T00:27:44.131Z,14.25
2018-04-19T00:28:44.122Z,14.17
2018-04-19T00:29:44.116Z,14.14
2018-04-19T00:30:44.109Z,14.11
2018-04-19T00:31:44.104Z,13.99
2018-04-19T00:32:44.098Z,13.95
2018-04-19T00:33:44.092Z,13.95
2018-04-19T00:34:44.085Z,13.97
2018-04-19T00:35:44.079Z,14.08
2018-04-19T00:36:44.084Z,14.18
2018-04-19T00:37:44.067Z,14.28
2018-04-19T00:38:44.059Z,14.29
2018-04-19T00:39:44.056Z,14.35
2018-04-19T00:40:44.047Z,14.47
2018-04-19T00:41:44.042Z,14.47
2018-04-19T00:42:44.035Z,14.45
2018-04-19T00:43:44.028Z,14.45
2018-04-19T00:44:44.023Z,14.53
2018-04-19T00:45:44.017Z,14.54
2018-04-19T00:46:44.010Z,14.55
2018-04-19T00:47:44.003Z,14.51
2018-04-19T00:48:43.996Z,14.51
2018-04-19T00:49:43.990Z,14.60
2018-04-19T00:50:43.984Z,14.65
2018-04-19T00:51:43.979Z,14.66
2018-04-19T00:52:43.973Z,14.63
2018-04-19T00:53:43.968Z,14.55
2018-04-19T00:54:43.960Z,14.54
2018-04-19T00:55:43.952Z,14.50
2018-04-19T00:56:43.957Z,14.50
2018-04-19T00:57:43.940Z,14.43
2018-04-19T00:58:43.933Z,14.35
2018-04-19T00:59:43.927Z,14.28
2018-04-19T01:00:43.921Z,14.20
2018-04-19T01:01:43.915Z,14.37
2018-04-19T01:02:43.909Z,14.26
2018-04-19T01:03:43.902Z,14.23
2018-04-19T01:04:43.896Z,14.23
2018-04-19T01:05:43.891Z,14.28
2018-04-19T01:06:43.884Z,14.22
2018-04-19T01:07:43.877Z,14.15
2018-04-19T01:08:43.871Z,14.11
2018-04-19T01:09:43.867Z,14.22
2018-04-19T01:10:43.859Z,14.17
2018-04-19T01:11:43.853Z,14.15
2018-04-19T01:12:43.847Z,14.03
2018-04-19T01:13:43.845Z,14.03
2018-04-19T01:14:43.833Z,14.05
2018-04-19T01:15:43.828Z,13.99
2018-04-19T01:16:43.822Z,13.87
2018-04-19T01:17:43.816Z,13.75
2018-04-19T01:18:43.809Z,13.79
2018-04-19T01:19:43.803Z,13.77
2018-04-19T01:20:43.797Z,13.70
2018-04-19T01:21:43.790Z,13.77
2018-04-19T01:22:43.788Z,13.67
2018-04-19T01:23:43.776Z,13.67
2018-04-19T01:24:43.772Z,13.74
2018-04-19T01:25:43.764Z,13.67
2018-04-19T01:26:43.758Z,13.60
2018-04-19T01:27:43.752Z,13.67
2018-04-19T01:28:43.745Z,13.62
2018-04-19T01:29:43.739Z,13.60
2018-04-19T01:30:43.739Z,13.57
2018-04-19T01:31:43.726Z,13.62
2018-04-19T01:32:43.719Z,13.50
2018-04-19T01:33:43.713Z,13.56
2018-04-19T01:34:43.706Z,13.53
2018-04-19T01:35:43.700Z,13.46
2018-04-19T01:36:43.694Z,13.46
2018-04-19T01:37:43.688Z,13.42
2018-04-19T01:38:43.684Z,13.39
2018-04-19T01:39:43.675Z,13.42
2018-04-19T01:40:43.667Z,13.42
2018-04-19T01:41:43.661Z,13.38
2018-04-19T01:42:43.655Z,13.37
2018-04-19T01:43:43.648Z,13.37
2018-04-19T01:44:43.643Z,13.33
2018-04-19T01:45:43.636Z,13.25
2018-04-19T01:46:43.629Z,13.25
2018-04-19T01:47:43.624Z,13.20
2018-04-19T01:48:43.616Z,13.25
2018-04-19T01:49:43.610Z,13.27
2018-04-19T01:50:43.602Z,13.13
2018-04-19T01:51:43.596Z,13.15
2018-04-19T01:52:43.589Z,13.11
2018-04-19T01:53:43.583Z,13.22
2018-04-19T01:54:43.575Z,13.05
2018-04-19T01:55:43.570Z,13.08
2018-04-19T01:56:43.563Z,13.13
2018-04-19T01:57:43.555Z,13.15
2018-04-19T01:58:43.549Z,13.16
2018-04-19T01:59:43.542Z,13.12
2018-04-19T02:00:43.541Z,13.00
2018-04-19T02:01:43.530Z,13.08
2018-04-19T02:02:43.523Z,13.13
2018-04-19T02:03:43.516Z,13.00
2018-04-19T02:04:43.510Z,13.04
2018-04-19T02:05:43.503Z,13.01
2018-04-19T02:06:43.495Z,13.01
2018-04-19T02:07:43.488Z,13.03
2018-04-19T02:08:43.482Z,13.03
2018-04-19T02:09:43.476Z,13.01
2018-04-19T02:10:43.470Z,13.00
2018-04-19T02:11:43.463Z,13.00
2018-04-19T02:12:43.463Z,13.00
2018-04-19T02:13:43.448Z,13.00
2018-04-19T02:14:43.442Z,13.03
2018-04-19T02:15:43.434Z,12.90
2018-04-19T02:16:43.429Z,13.03
2018-04-19T02:17:43.422Z,12.95
2018-04-19T02:18:43.460Z,12.93
2018-04-19T02:19:43.407Z,12.90
2018-04-19T02:20:43.400Z,12.98
2018-04-19T02:21:43.393Z,12.90
2018-04-19T02:22:43.386Z,12.94
2018-04-19T02:23:43.379Z,12.87
2018-04-19T02:24:43.373Z,12.85
2018-04-19T02:25:43.366Z,12.90
2018-04-19T02:26:43.359Z,12.91
2018-04-19T02:27:43.359Z,13.01
2018-04-19T02:28:43.347Z,12.97
2018-04-19T02:29:43.340Z,12.97
2018-04-19T02:30:43.333Z,13.11
2018-04-19T02:31:43.326Z,13.16
2018-04-19T02:32:43.319Z,13.12
2018-04-19T02:33:43.312Z,13.05
2018-04-19T02:34:43.305Z,13.05
2018-04-19T02:35:43.340Z,12.97
2018-04-19T02:36:43.292Z,13.01
2018-04-19T02:37:43.289Z,13.09
2018-04-19T02:38:43.280Z,13.12
2018-04-19T02:39:43.272Z,13.11
2018-04-19T02:40:43.269Z,12.98
2018-04-19T02:41:43.258Z,13.01
2018-04-19T02:42:43.250Z,13.01
2018-04-19T02:43:43.250Z,12.93
2018-04-19T02:44:43.236Z,12.90
2018-04-19T02:45:43.230Z,12.93
2018-04-19T02:46:43.223Z,12.97
2018-04-19T02:47:43.216Z,12.97
2018-04-19T02:48:43.207Z,13.11
2018-04-19T02:49:43.204Z,13.11
2018-04-19T02:50:43.194Z,13.13
2018-04-19T02:51:43.188Z,13.15
2018-04-19T02:52:43.188Z,13.22
2018-04-19T02:53:43.177Z,13.19
2018-04-19T02:54:43.186Z,13.18
2018-04-19T02:55:43.163Z,13.27
2018-04-19T02:56:43.153Z,13.15
2018-04-19T02:57:43.168Z,13.19
2018-04-19T02:58:43.139Z,13.09
2018-04-19T02:59:43.135Z,13.00
2018-04-19T03:00:43.126Z,12.98
2018-04-19T03:01:43.118Z,12.86
2018-04-19T03:02:43.111Z,12.90
2018-04-19T03:03:43.105Z,12.83
2018-04-19T03:04:43.097Z,12.94
2018-04-19T03:05:43.089Z,12.90
2018-04-19T03:06:43.082Z,12.78
2018-04-19T03:07:43.079Z,12.85
2018-04-19T03:08:43.069Z,12.80
2018-04-19T03:09:43.062Z,12.76
2018-04-19T03:10:43.055Z,12.65
2018-04-19T03:11:43.047Z,12.61
2018-04-19T03:12:43.040Z,12.57
2018-04-19T03:13:43.034Z,12.58
2018-04-19T03:14:43.026Z,12.54
2018-04-19T03:15:43.021Z,12.42
2018-04-19T03:16:43.015Z,12.42
2018-04-19T03:17:43.005Z,12.35
2018-04-19T03:18:42.998Z,12.36
2018-04-19T03:19:42.991Z,12.22
2018-04-19T03:20:42.984Z,12.21
2018-04-19T03:21:42.978Z,12.17
2018-04-19T03:22:42.969Z,12.12
2018-04-19T03:23:42.962Z,12.13
2018-04-19T03:24:42.956Z,12.04
2018-04-19T03:25:42.949Z,12.06
2018-04-19T03:26:42.940Z,12.00
2018-04-19T03:27:42.933Z,12.07
2018-04-19T03:28:42.927Z,11.95
2018-04-19T03:29:42.921Z,12.04
2018-04-19T03:30:42.913Z,12.02
2018-04-19T03:31:42.905Z,11.95
2018-04-19T03:32:42.900Z,11.88
2018-04-19T03:33:42.891Z,11.84
2018-04-19T03:34:42.882Z,11.84
2018-04-19T03:35:42.876Z,11.84
2018-04-19T03:36:42.869Z,11.88
2018-04-19T03:37:42.862Z,11.80
2018-04-19T03:38:42.852Z,11.80
2018-04-19T03:39:42.847Z,11.84
2018-04-19T03:40:42.859Z,11.77
2018-04-19T03:41:42.831Z,11.84
2018-04-19T03:42:42.824Z,11.80
2018-04-19T03:43:42.816Z,11.78
2018-04-19T03:44:42.809Z,11.78
2018-04-19T03:45:42.801Z,11.83
2018-04-19T03:46:42.794Z,11.83
2018-04-19T03:47:42.789Z,11.91
2018-04-19T03:48:42.779Z,12.02
2018-04-19T03:49:42.773Z,11.99
2018-04-19T03:50:42.764Z,11.91
2018-04-19T03:51:42.756Z,12.04
2018-04-19T03:52:42.749Z,12.00
2018-04-19T03:53:42.743Z,12.04
2018-04-19T03:54:42.734Z,11.94
2018-04-19T03:55:42.726Z,11.94
2018-04-19T03:56:42.719Z,12.02
2018-04-19T03:57:42.712Z,11.94
2018-04-19T03:58:42.706Z,11.83
2018-04-19T03:59:42.697Z,11.83
2018-04-19T04:00:42.691Z,11.90
2018-04-19T04:01:42.683Z,11.88
2018-04-19T04:02:42.674Z,11.83
2018-04-19T04:03:42.667Z,11.84
2018-04-19T04:04:42.661Z,11.77
2018-04-19T04:05:42.654Z,11.78
2018-04-19T04:06:42.645Z,11.63
2018-04-19T04:07:42.637Z,11.66
2018-04-19T04:08:42.630Z,11.65
2018-04-19T04:09:42.622Z,11.66
2018-04-19T04:10:42.614Z,11.63
2018-04-19T04:11:42.608Z,11.66
2018-04-19T04:12:42.600Z,11.60
2018-04-19T04:13:42.594Z,11.66
2018-04-19T04:14:42.585Z,11.66
2018-04-19T04:15:42.578Z,11.73
2018-04-19T04:16:42.571Z,11.80
2018-04-19T04:17:42.564Z,11.66
2018-04-19T04:18:42.555Z,11.66
2018-04-19T04:19:42.549Z,11.65
2018-04-19T04:20:42.540Z,11.62
2018-04-19T04:21:42.533Z,11.60
2018-04-19T04:22:42.529Z,11.63
2018-04-19T04:23:42.518Z,11.59
2018-04-19T04:24:42.509Z,11.59
2018-04-19T04:25:42.502Z,11.62
2018-04-19T04:26:42.495Z,11.52
2018-04-19T04:27:42.490Z,11.59
2018-04-19T04:28:42.479Z,11.60
2018-04-19T04:29:42.472Z,11.62
2018-04-19T04:30:42.465Z,11.63
2018-04-19T04:31:42.461Z,11.80
2018-04-19T04:32:42.450Z,11.84
2018-04-19T04:33:42.448Z,11.86
2018-04-19T04:34:42.434Z,11.97
2018-04-19T04:35:42.427Z,11.95
2018-04-19T04:36:42.418Z,11.99
2018-04-19T04:37:42.411Z,12.10
2018-04-19T04:38:42.407Z,11.99
2018-04-19T04:39:42.400Z,11.95
2018-04-19T04:40:42.388Z,12.03
2018-04-19T04:41:42.385Z,12.10
2018-04-19T04:42:42.373Z,12.06
2018-04-19T04:43:42.366Z,12.06
2018-04-19T04:44:42.359Z,12.10
2018-04-19T04:45:42.352Z,12.27
2018-04-19T04:46:42.345Z,12.43
2018-04-19T04:47:42.340Z,12.43
2018-04-19T04:48:42.328Z,12.42
2018-04-19T04:49:42.320Z,12.40
2018-04-19T04:50:42.312Z,12.42
2018-04-19T04:51:42.307Z,12.43
2018-04-19T04:52:42.298Z,12.57
2018-04-19T04:53:42.293Z,12.57
2018-04-19T04:54:42.282Z,12.67
2018-04-19T04:55:42.276Z,12.62
2018-04-19T04:56:42.269Z,12.67
2018-04-19T04:57:42.263Z,12.62
2018-04-19T04:58:42.254Z,12.75
2018-04-19T04:59:42.247Z,12.90
2018-04-19T05:00:42.240Z,13.04
2018-04-19T05:01:42.233Z,13.15
2018-04-19T05:02:42.225Z,13.13
2018-04-19T05:03:42.218Z,13.23
2018-04-19T05:04:42.210Z,13.30
2018-04-19T05:05:42.224Z,13.42
2018-04-19T05:06:42.197Z,13.44
2018-04-19T05:07:42.188Z,13.46
2018-04-19T05:08:42.182Z,13.60
2018-04-19T05:09:42.174Z,13.63
2018-04-19T05:10:42.166Z,13.77
2018-04-19T05:11:42.161Z,13.85
2018-04-19T05:12:42.154Z,13.86
2018-04-19T05:13:42.146Z,13.93
2018-04-19T05:14:42.138Z,13.90
2018-04-19T05:15:42.133Z,13.92
2018-04-19T05:16:42.126Z,13.87
2018-04-19T05:17:42.118Z,14.08
2018-04-19T05:18:42.110Z,14.28
2018-04-19T05:19:42.103Z,14.26
2018-04-19T05:20:42.101Z,14.41
2018-04-19T05:21:42.091Z,14.29
2018-04-19T05:22:42.083Z,14.33
2018-04-19T05:23:42.076Z,14.35
2018-04-19T05:24:42.070Z,14.51
2018-04-19T05:25:42.065Z,14.60
2018-04-19T05:26:42.057Z,14.89
2018-04-19T05:27:42.055Z,14.99
2018-04-19T05:28:42.042Z,15.15
2018-04-19T05:29:42.038Z,15.24
2018-04-19T05:30:42.030Z,15.24
2018-04-19T05:31:42.039Z,15.43
2018-04-19T05:32:42.017Z,15.40
2018-04-19T05:33:42.011Z,15.62
2018-04-19T05:34:42.007Z,15.57
2018-04-19T05:35:41.997Z,15.64
2018-04-19T05:36:41.990Z,15.75
2018-04-19T05:37:41.984Z,15.83
2018-04-19T05:38:41.977Z,15.97
2018-04-19T05:39:41.970Z,16.13
2018-04-19T05:40:41.964Z,16.10
2018-04-19T05:41:41.959Z,16.29
2018-04-19T05:42:41.951Z,16.32
2018-04-19T05:43:41.945Z,16.35
2018-04-19T05:44:41.939Z,16.43
2018-04-19T05:45:41.933Z,16.49
2018-04-19T05:46:41.926Z,16.50
2018-04-19T05:47:41.919Z,16.58
2018-04-19T05:48:41.947Z,16.61
2018-04-19T05:49:41.907Z,16.61
2018-04-19T05:50:41.900Z,16.61
2018-04-19T05:51:41.895Z,16.68
2018-04-19T05:52:41.889Z,16.74
2018-04-19T05:53:41.884Z,16.86
2018-04-19T05:54:41.878Z,16.89
2018-04-19T05:55:41.873Z,16.93
2018-04-19T05:56:41.867Z,17.01
2018-04-19T05:57:41.861Z,17.11
2018-04-19T05:58:41.857Z,17.11
2018-04-19T05:59:41.854Z,17.14
2018-04-19T06:00:41.844Z,17.22
2018-04-19T06:01:41.837Z,17.20
2018-04-19T06:02:41.831Z,17.24
2018-04-19T06:03:41.827Z,17.31
2018-04-19T06:04:41.822Z,17.31
2018-04-19T06:05:41.818Z,17.44
2018-04-19T06:06:41.812Z,17.41
2018-04-19T06:07:41.810Z,17.39
2018-04-19T06:08:41.857Z,17.49
2018-04-19T06:09:41.803Z,17.63
2018-04-19T06:10:41.790Z,17.60
2018-04-19T06:11:41.787Z,17.70
2018-04-19T06:12:41.781Z,17.74
2018-04-19T06:13:41.775Z,17.78
2018-04-19T06:14:41.770Z,17.86
2018-04-19T06:15:41.767Z,17.95
2018-04-19T06:16:41.761Z,17.95
2018-04-19T06:17:41.758Z,18.00
2018-04-19T06:18:41.751Z,18.04
2018-04-19T06:19:41.751Z,18.08
2018-04-19T06:20:41.743Z,18.10
2018-04-19T06:21:41.739Z,18.13
2018-04-19T06:22:41.734Z,18.20
2018-04-19T06:23:41.730Z,18.20
2018-04-19T06:24:41.726Z,18.33
2018-04-19T06:25:41.721Z,18.43
2018-04-19T06:26:41.715Z,18.53
2018-04-19T06:27:41.715Z,18.62
2018-04-19T06:28:41.710Z,18.75
2018-04-19T06:29:41.706Z,18.71
2018-04-19T06:30:41.698Z,18.78
2018-04-19T06:31:41.693Z,18.75
2018-04-19T06:32:41.690Z,18.74
2018-04-19T06:33:41.686Z,18.86
2018-04-19T06:34:41.687Z,18.95
2018-04-19T06:35:41.677Z,19.00
2018-04-19T06:36:41.673Z,18.99
2018-04-19T06:37:41.671Z,19.04
2018-04-19T06:38:41.665Z,19.14
2018-04-19T06:39:41.662Z,19.29
2018-04-19T06:40:41.658Z,19.26
2018-04-19T06:41:41.654Z,19.33
2018-04-19T06:42:41.649Z,19.47
2018-04-19T06:43:41.647Z,19.44
2018-04-19T06:44:41.642Z,19.63
2018-04-19T06:45:41.642Z,19.63
2018-04-19T06:46:41.635Z,19.59
2018-04-19T06:47:41.635Z,19.66
2018-04-19T06:48:41.628Z,19.67
2018-04-19T06:49:41.626Z,19.79
2018-04-19T06:50:41.622Z,19.84
2018-04-19T06:51:41.618Z,19.94
2018-04-19T06:52:41.617Z,20.06
2018-04-19T06:53:41.613Z,20.14
2018-04-19T06:54:41.610Z,20.14
2018-04-19T06:55:41.608Z,20.19
2018-04-19T06:56:41.605Z,20.39
2018-04-19T06:57:41.602Z,20.55
2018-04-19T06:58:41.598Z,20.72
2018-04-19T06:59:41.597Z,20.77
2018-04-19T07:00:41.595Z,20.84
2018-04-19T07:01:41.596Z,20.82
2018-04-19T07:02:41.595Z,20.88
2018-04-19T07:03:41.588Z,20.92
2018-04-19T07:04:41.584Z,20.93
2018-04-19T07:05:41.585Z,21.09
2018-04-19T07:06:41.584Z,21.17
2018-04-19T07:07:41.579Z,21.25
2018-04-19T07:08:41.577Z,21.35
2018-04-19T07:09:41.579Z,21.40
2018-04-19T07:10:41.574Z,21.48
2018-04-19T07:11:41.572Z,21.55
2018-04-19T07:12:41.572Z,21.70
2018-04-19T07:13:41.571Z,21.76
2018-04-19T07:14:41.623Z,21.80
2018-04-19T07:15:41.570Z,21.85
2018-04-19T07:16:41.571Z,22.02
2018-04-19T07:17:41.573Z,22.13
2018-04-19T07:18:41.574Z,22.32
2018-04-19T07:19:41.578Z,22.45
2018-04-19T07:20:41.577Z,22.48
2018-04-19T07:21:41.580Z,22.66
2018-04-19T07:22:41.584Z,22.68
2018-04-19T07:23:41.592Z,22.96
2018-04-19T07:24:41.592Z,23.05
2018-04-19T07:25:41.602Z,23.15
2018-04-19T07:26:41.602Z,23.28
2018-04-19T07:27:41.607Z,23.34
2018-04-19T07:28:41.613Z,23.55
2018-04-19T07:29:41.621Z,23.73
2018-04-19T07:30:41.629Z,23.83
2018-04-19T07:31:41.631Z,23.93
2018-04-19T07:32:41.640Z,24.10
2018-04-19T07:33:41.648Z,24.02
2018-04-19T07:34:41.652Z,24.13
2018-04-19T07:35:41.661Z,24.33
2018-04-19T07:36:41.669Z,24.24
2018-04-19T07:37:41.679Z,24.48
2018-04-19T07:38:41.684Z,24.39
2018-04-19T07:39:41.692Z,24.42
2018-04-19T07:40:41.702Z,24.45
2018-04-19T07:41:41.712Z,24.50
2018-04-19T07:42:41.717Z,24.63
2018-04-19T07:43:41.726Z,24.61
2018-04-19T07:44:41.738Z,24.69
2018-04-19T07:45:41.743Z,24.80
2018-04-19T07:46:41.752Z,24.86
2018-04-19T07:47:41.762Z,24.89
2018-04-19T07:48:41.772Z,24.99
2018-04-19T07:49:41.781Z,25.23
2018-04-19T07:50:41.791Z,25.33
2018-04-19T07:51:41.799Z,25.41
2018-04-19T07:52:41.810Z,25.43
2018-04-19T07:53:41.820Z,25.46
2018-04-19T07:54:41.830Z,25.53
2018-04-19T07:55:41.839Z,25.68
2018-04-19T07:56:41.853Z,25.63
2018-04-19T07:58:41.879Z,25.48
2018-04-19T07:59:41.883Z,25.48
2018-04-19T08:00:41.892Z,25.70
2018-04-19T08:01:41.903Z,25.85
2018-04-19T08:02:41.913Z,26.15
2018-04-19T08:03:41.924Z,26.15
2018-04-19T08:04:41.936Z,26.21
2018-04-19T08:05:41.948Z,26.25
2018-04-19T08:06:41.964Z,26.31
2018-04-19T08:07:41.971Z,26.31
2018-04-19T08:08:41.981Z,26.38
2018-04-19T08:09:41.994Z,26.56
2018-04-19T08:10:42.004Z,26.53
2018-04-19T08:11:42.017Z,26.75
2018-04-19T08:12:42.034Z,26.66
2018-04-19T08:13:42.041Z,26.65
2018-04-19T08:14:42.052Z,26.56
2018-04-19T08:15:42.063Z,26.53
2018-04-19T08:16:42.079Z,26.68
2018-04-19T08:17:42.088Z,26.88
2018-04-19T08:18:42.100Z,27.00
2018-04-19T08:19:42.111Z,27.29
2018-04-19T08:20:42.125Z,27.37
2018-04-19T08:21:42.138Z,27.40
2018-04-19T08:22:42.150Z,27.39
2018-04-19T08:23:42.162Z,27.51
2018-04-19T08:24:42.176Z,27.49
2018-04-19T08:25:42.189Z,27.60
2018-04-19T08:26:42.202Z,27.63
2018-04-19T08:27:42.216Z,27.70
2018-04-19T08:28:42.229Z,27.64
2018-04-19T08:29:42.251Z,27.65
2018-04-19T08:30:42.255Z,27.74
2018-04-19T08:31:42.269Z,27.77
2018-04-19T08:32:42.283Z,27.54
2018-04-19T08:33:42.297Z,27.52
2018-04-19T08:34:42.308Z,27.55
2018-04-19T08:35:42.324Z,27.64
2018-04-19T08:36:42.337Z,27.80
2018-04-19T08:37:42.351Z,27.77
2018-04-19T08:38:42.383Z,27.63
2018-04-19T08:39:42.378Z,27.75
2018-04-19T08:40:42.392Z,27.85
2018-04-19T08:41:42.406Z,28.05
2018-04-19T08:42:42.419Z,28.22
2018-04-19T08:43:42.434Z,28.26
2018-04-19T08:44:42.448Z,28.27
2018-04-19T08:45:42.463Z,28.32
2018-04-19T08:46:42.477Z,28.23
2018-04-19T08:47:42.491Z,28.19
2018-04-19T08:48:42.506Z,28.14
2018-04-19T08:49:42.520Z,28.19
2018-04-19T08:50:42.534Z,28.15
2018-04-19T08:51:42.550Z,28.17
2018-04-19T08:52:42.563Z,28.25
2018-04-19T08:53:42.579Z,27.92
2018-04-19T08:54:42.594Z,27.63
2018-04-19T08:55:42.605Z,27.32
2018-04-19T08:56:42.620Z,27.18
2018-04-19T08:57:42.633Z,27.12
2018-04-19T08:58:42.645Z,27.26
2018-04-19T08:59:42.660Z,27.40
2018-04-19T09:00:42.676Z,27.58
2018-04-19T09:01:42.687Z,27.64
2018-04-19T09:02:42.732Z,27.74
2018-04-19T09:03:42.715Z,27.55
2018-04-19T09:04:42.730Z,27.55
2018-04-19T09:05:42.744Z,27.55
2018-04-19T09:06:42.755Z,27.58
2018-04-19T09:07:42.772Z,27.54
2018-04-19T09:08:42.783Z,27.85
2018-04-19T09:09:42.801Z,28.19
2018-04-19T09:10:42.813Z,28.37
2018-04-19T09:11:42.827Z,28.54
2018-04-19T09:12:42.841Z,28.60
2018-04-19T09:13:42.856Z,28.38
2018-04-19T09:14:42.868Z,28.47
2018-04-19T09:15:42.885Z,28.56
2018-04-19T09:16:42.898Z,28.64
2018-04-19T09:17:42.914Z,28.69
2018-04-19T09:18:42.928Z,28.62
2018-04-19T09:19:42.943Z,28.52
2018-04-19T09:20:42.958Z,28.51
2018-04-19T09:21:42.974Z,28.62
2018-04-19T09:22:42.989Z,28.54
2018-04-19T09:23:43.004Z,28.56
2018-04-19T09:24:43.020Z,28.84
2018-04-19T09:25:43.036Z,28.81
2018-04-19T09:26:43.063Z,28.64
2018-04-19T09:27:43.067Z,28.72
2018-04-19T09:28:43.081Z,28.82
2018-04-19T09:29:43.097Z,28.91
2018-04-19T09:30:43.116Z,29.02
2018-04-19T09:31:43.133Z,29.07
2018-04-19T09:32:43.146Z,29.17
2018-04-19T09:33:43.161Z,29.29
2018-04-19T09:34:43.176Z,29.49
2018-04-19T09:35:43.193Z,29.78
2018-04-19T09:36:43.214Z,29.98
2018-04-19T09:37:43.227Z,30.05
2018-04-19T09:38:43.243Z,30.12
2018-04-19T09:39:43.262Z,30.09
2018-04-19T09:40:43.278Z,29.87
2018-04-19T09:41:43.297Z,29.90
2018-04-19T09:42:43.313Z,29.86
2018-04-19T09:43:43.329Z,29.78
2018-04-19T09:44:43.347Z,29.59
2018-04-19T09:45:43.365Z,29.50
2018-04-19T09:46:43.386Z,29.53
2018-04-19T09:47:43.396Z,29.47
2018-04-19T09:48:43.413Z,29.51
2018-04-19T09:49:43.431Z,29.45
2018-04-19T09:50:43.446Z,29.56
2018-04-19T09:51:43.464Z,29.59
2018-04-19T09:52:43.487Z,29.60
2018-04-19T09:53:43.497Z,29.63
2018-04-19T09:54:43.519Z,29.95
2018-04-19T09:55:43.530Z,30.08
2018-04-19T09:56:43.548Z,29.97
2018-04-19T09:57:43.566Z,29.84
2018-04-19T09:58:43.585Z,30.09
2018-04-19T09:59:43.600Z,30.31
2018-04-19T10:00:43.620Z,30.32
2018-04-19T10:01:43.637Z,30.27
2018-04-19T10:02:43.652Z,30.32
2018-04-19T10:03:43.672Z,30.51
2018-04-19T10:04:43.689Z,30.48
2018-04-19T10:05:43.707Z,30.59
2018-04-19T10:06:43.725Z,30.87
2018-04-19T10:07:43.744Z,30.88
2018-04-19T10:08:43.763Z,30.97
2018-04-19T10:09:43.782Z,30.91
2018-04-19T10:10:43.800Z,30.84
2018-04-19T10:11:43.818Z,30.88
2018-04-19T10:12:43.840Z,31.00
2018-04-19T10:13:43.858Z,31.21
2018-04-19T10:14:43.875Z,31.24
2018-04-19T10:15:43.895Z,31.43
2018-04-19T10:16:43.914Z,31.43
2018-04-19T10:17:43.934Z,31.52
2018-04-19T10:18:43.954Z,31.47
2018-04-19T10:19:43.973Z,31.54
2018-04-19T10:20:43.993Z,31.49
2018-04-19T10:21:44.012Z,31.25
2018-04-19T10:22:44.032Z,31.05
2018-04-19T10:23:44.049Z,30.81
2018-04-19T10:24:44.067Z,30.80
2018-04-19T10:25:44.087Z,30.63
2018-04-19T10:26:44.104Z,30.72
2018-04-19T10:27:44.122Z,30.81
2018-04-19T10:28:44.142Z,30.68
2018-04-19T10:29:44.161Z,30.87
2018-04-19T10:30:44.178Z,30.96
2018-04-19T10:31:44.196Z,31.27
2018-04-19T10:32:44.214Z,31.18
2018-04-19T10:33:44.247Z,31.10
2018-04-19T10:34:44.250Z,31.12
2018-04-19T10:35:44.271Z,31.10
2018-04-19T10:36:44.287Z,30.91
2018-04-19T10:37:44.304Z,31.03
2018-04-19T10:38:44.321Z,30.92
2018-04-19T10:39:44.339Z,30.85
2018-04-19T10:40:44.358Z,30.80
2018-04-19T10:41:44.376Z,30.63
2018-04-19T10:42:44.393Z,30.53
2018-04-19T10:43:44.410Z,30.39
2018-04-19T10:44:44.428Z,30.68
2018-04-19T10:45:44.446Z,30.90
2018-04-19T10:46:44.461Z,31.00
2018-04-19T10:47:44.482Z,30.90
2018-04-19T10:48:44.496Z,30.90
2018-04-19T10:49:44.514Z,30.88
2018-04-19T10:50:44.531Z,30.87
2018-04-19T10:51:44.550Z,30.83
2018-04-19T10:52:44.565Z,30.73
2018-04-19T10:53:44.583Z,30.70
2018-04-19T10:54:44.600Z,30.69
2018-04-19T10:55:44.617Z,30.80
2018-04-19T10:56:44.634Z,30.62
2018-04-19T10:57:44.649Z,30.65
2018-04-19T10:58:44.666Z,30.66
2018-04-19T10:59:44.684Z,30.80
2018-04-19T11:00:44.700Z,31.02
2018-04-19T11:01:44.716Z,31.03
2018-04-19T11:02:44.732Z,30.83
2018-04-19T11:03:44.751Z,30.81
2018-04-19T11:04:44.767Z,30.77
2018-04-19T11:05:44.783Z,30.97
2018-04-19T11:06:44.799Z,31.21
2018-04-19T11:07:44.817Z,31.09
2018-04-19T11:08:44.834Z,30.92
2018-04-19T11:09:44.852Z,30.84
2018-04-19T11:10:44.867Z,30.85
2018-04-19T11:11:44.886Z,30.90
2018-04-19T11:12:44.902Z,30.88
2018-04-19T11:13:44.920Z,30.83
2018-04-19T11:14:44.934Z,30.87
2018-04-19T11:15:44.954Z,30.90
2018-04-19T11:16:44.968Z,30.92
2018-04-19T11:17:44.986Z,30.81
2018-04-19T11:18:45.004Z,30.81
2018-04-19T11:19:45.023Z,31.03
2018-04-19T11:20:45.035Z,30.96
2018-04-19T11:21:45.052Z,30.97
2018-04-19T11:22:45.068Z,30.91
2018-04-19T11:23:45.084Z,31.14
2018-04-19T11:24:45.102Z,31.42
2018-04-19T11:25:45.118Z,31.33
2018-04-19T11:26:45.135Z,31.05
2018-04-19T11:27:45.153Z,30.99
2018-04-19T11:28:45.168Z,31.24
2018-04-19T11:29:45.184Z,31.09
2018-04-19T11:30:45.201Z,31.17
2018-04-19T11:31:45.216Z,31.28
2018-04-19T11:32:45.234Z,31.40
2018-04-19T11:33:45.255Z,31.22
2018-04-19T11:34:45.266Z,31.05
2018-04-19T11:35:45.285Z,30.72
2018-04-19T11:36:45.300Z,30.68
2018-04-19T11:37:45.316Z,31.02
2018-04-19T11:38:45.333Z,31.37
2018-04-19T11:39:45.347Z,31.55
2018-04-19T11:40:45.367Z,31.58
2018-04-19T11:41:45.382Z,31.25
2018-04-19T11:42:45.397Z,31.42
2018-04-19T11:43:45.413Z,31.42
2018-04-19T11:44:45.431Z,31.59
2018-04-19T11:45:45.448Z,31.65
2018-04-19T11:46:45.464Z,31.54
2018-04-19T11:47:45.479Z,31.76
2018-04-19T11:48:45.498Z,31.78
2018-04-19T11:49:45.517Z,31.55
2018-04-19T11:50:45.529Z,31.05
2018-04-19T11:51:45.546Z,30.92
2018-04-19T11:52:45.564Z,30.84
2018-04-19T11:53:45.579Z,30.84
2018-04-19T11:54:45.596Z,30.72
2018-04-19T11:55:45.612Z,30.68
2018-04-19T11:56:45.628Z,30.37
2018-04-19T11:57:45.645Z,30.39
2018-04-19T11:58:45.660Z,30.62
2018-04-19T11:59:45.675Z,31.07
2018-04-19T12:00:45.690Z,31.40
2018-04-19T12:01:45.707Z,31.58
2018-04-19T12:02:45.720Z,31.65
2018-04-19T12:03:45.737Z,31.96
2018-04-19T12:04:45.752Z,32.19
2018-04-19T12:05:45.769Z,32.26
2018-04-19T12:06:45.785Z,32.48
2018-04-19T12:07:45.801Z,32.49
2018-04-19T12:08:45.818Z,32.40
2018-04-19T12:09:45.835Z,32.22
2018-04-19T12:10:45.850Z,32.23
2018-04-19T12:11:45.867Z,32.29
2018-04-19T12:12:45.883Z,32.40
2018-04-19T12:13:45.915Z,32.36
2018-04-19T12:14:45.916Z,32.59
2018-04-19T12:15:45.932Z,32.74
2018-04-19T12:16:45.947Z,32.40
2018-04-19T12:17:45.964Z,32.27
2018-04-19T12:18:45.980Z,32.23
2018-04-19T12:19:45.996Z,32.15
2018-04-19T12:20:46.013Z,32.37
2018-04-19T12:21:46.029Z,32.46
2018-04-19T12:22:46.044Z,32.43
2018-04-19T12:23:46.059Z,32.49
2018-04-19T12:24:46.076Z,32.75
2018-04-19T12:25:46.092Z,32.90
2018-04-19T12:26:46.108Z,33.14
2018-04-19T12:27:46.123Z,33.07
2018-04-19T12:28:46.139Z,33.11
2018-04-19T12:29:46.155Z,33.15
2018-04-19T12:30:46.170Z,33.09
2018-04-19T12:31:46.187Z,32.83
2018-04-19T12:32:46.203Z,32.34
2018-04-19T12:33:46.219Z,32.03
2018-04-19T12:34:46.234Z,32.12
2018-04-19T12:35:46.249Z,32.27
2018-04-19T12:36:46.264Z,32.45
2018-04-19T12:37:46.282Z,32.67
2018-04-19T12:38:46.299Z,32.86
2018-04-19T12:39:46.309Z,33.05
2018-04-19T12:40:46.324Z,33.19
2018-04-19T12:41:46.343Z,33.20
2018-04-19T12:42:46.354Z,33.07
2018-04-19T12:43:46.369Z,32.77
2018-04-19T12:44:46.385Z,32.74
2018-04-19T12:45:46.398Z,32.27
2018-04-19T12:46:46.414Z,32.07
2018-04-19T12:47:46.427Z,32.12
2018-04-19T12:48:46.445Z,32.00
2018-04-19T12:49:46.455Z,31.85
2018-04-19T12:50:46.467Z,31.97
2018-04-19T12:51:46.482Z,32.22
2018-04-19T12:52:46.497Z,32.41
2018-04-19T12:53:46.512Z,32.56